sensor_id;sensor_type;location;lat;lon;timestamp;P1;durP1;ratioP1;P2;durP2;ratioP2
3066;SDS011;1544;48.834;9.194;2024-01-11T00:00:56;41.40;;;24.10;;
3066;SDS011;1544;48.834;9.194;2024-01-11T00:03:32;44.55;;;22.83;;
3066;SDS011;1544;48.834;9.194;2024-01-11T00:06:08;39.65;;;20.70;;
3066;SDS011;1544;48.834;9.194;2024-01-11T00:08:44;40.90;;;22.13;;
3066;SDS011;1544;48.834;9.194;2024-01-11T00:11:20;41.22;;;19.88;;
3066;SDS011;1544;48.834;9.194;2024-01-11T00:13:56;45.30;;;22.48;;
3066;SDS011;1544;48.834;9.194;2024-01-11T00:16:32;42.20;;;23.38;;
3066;SDS011;1544;48.834;9.194;2024-01-11T00:19:08;34.65;;;22.17;;
3066;SDS011;1544;48.834;9.194;2024-01-11T00:21:45;38.03;;;21.23;;
3066;SDS011;1544;48.834;9.194;2024-01-11T00:24:21;40.60;;;22.52;;
3066;SDS011;1544;48.834;9.194;2024-01-11T00:26:57;40.83;;;22.73;;
3066;SDS011;1544;48.834;9.194;2024-01-11T00:29:33;38.00;;;22.83;;
3066;SDS011;1544;48.834;9.194;2024-01-11T00:32:11;38.40;;;21.25;;
3066;SDS011;1544;48.834;9.194;2024-01-11T00:34:47;39.25;;;22.35;;
3066;SDS011;1544;48.834;9.194;2024-01-11T00:37:23;42.60;;;22.98;;
3066;SDS011;1544;48.834;9.194;2024-01-11T00:40:00;37.85;;;21.73;;
3066;SDS011;1544;48.834;9.194;2024-01-11T00:42:36;43.53;;;23.05;;
3066;SDS011;1544;48.834;9.194;2024-01-11T00:45:15;45.00;;;21.67;;
3066;SDS011;1544;48.834;9.194;2024-01-11T00:47:54;43.70;;;21.45;;
3066;SDS011;1544;48.834;9.194;2024-01-11T00:50:30;41.78;;;21.23;;
3066;SDS011;1544;48.834;9.194;2024-01-11T00:53:06;40.83;;;22.83;;
3066;SDS011;1544;48.834;9.194;2024-01-11T00:55:43;39.60;;;21.35;;
3066;SDS011;1544;48.834;9.194;2024-01-11T00:58:19;47.08;;;23.20;;
3066;SDS011;1544;48.834;9.194;2024-01-11T01:00:55;43.47;;;22.83;;
3066;SDS011;1544;48.834;9.194;2024-01-11T01:03:31;43.42;;;22.38;;
3066;SDS011;1544;48.834;9.194;2024-01-11T01:06:07;42.28;;;21.45;;
3066;SDS011;1544;48.834;9.194;2024-01-11T01:08:44;38.30;;;21.02;;
3066;SDS011;1544;48.834;9.194;2024-01-11T01:11:20;40.90;;;21.98;;
3066;SDS011;1544;48.834;9.194;2024-01-11T01:13:56;46.60;;;22.92;;
3066;SDS011;1544;48.834;9.194;2024-01-11T01:16:32;43.10;;;23.13;;
3066;SDS011;1544;48.834;9.194;2024-01-11T01:19:07;42.63;;;21.90;;
3066;SDS011;1544;48.834;9.194;2024-01-11T01:21:44;36.63;;;20.98;;
3066;SDS011;1544;48.834;9.194;2024-01-11T01:24:20;42.05;;;21.02;;
3066;SDS011;1544;48.834;9.194;2024-01-11T01:26:55;31.95;;;19.23;;
3066;SDS011;1544;48.834;9.194;2024-01-11T01:29:31;38.67;;;20.75;;
3066;SDS011;1544;48.834;9.194;2024-01-11T01:32:07;39.75;;;23.15;;
3066;SDS011;1544;48.834;9.194;2024-01-11T01:34:44;43.33;;;23.23;;
3066;SDS011;1544;48.834;9.194;2024-01-11T01:37:23;46.08;;;23.10;;
3066;SDS011;1544;48.834;9.194;2024-01-11T01:39:59;40.70;;;21.42;;
3066;SDS011;1544;48.834;9.194;2024-01-11T01:42:35;38.95;;;19.30;;
3066;SDS011;1544;48.834;9.194;2024-01-11T01:45:11;38.17;;;20.80;;
3066;SDS011;1544;48.834;9.194;2024-01-11T01:47:47;35.67;;;19.65;;
3066;SDS011;1544;48.834;9.194;2024-01-11T01:50:23;45.33;;;21.10;;
3066;SDS011;1544;48.834;9.194;2024-01-11T01:53:00;33.78;;;20.02;;
3066;SDS011;1544;48.834;9.194;2024-01-11T01:55:37;38.30;;;21.35;;
3066;SDS011;1544;48.834;9.194;2024-01-11T01:58:12;38.08;;;21.70;;
3066;SDS011;1544;48.834;9.194;2024-01-11T02:00:49;39.15;;;21.23;;
3066;SDS011;1544;48.834;9.194;2024-01-11T02:03:27;39.15;;;21.58;;
3066;SDS011;1544;48.834;9.194;2024-01-11T02:06:04;40.47;;;21.52;;
3066;SDS011;1544;48.834;9.194;2024-01-11T02:08:42;42.22;;;22.98;;
3066;SDS011;1544;48.834;9.194;2024-01-11T02:11:20;42.67;;;22.60;;
3066;SDS011;1544;48.834;9.194;2024-01-11T02:13:56;42.08;;;21.30;;
3066;SDS011;1544;48.834;9.194;2024-01-11T02:16:33;35.72;;;20.52;;
3066;SDS011;1544;48.834;9.194;2024-01-11T02:19:09;41.05;;;22.42;;
3066;SDS011;1544;48.834;9.194;2024-01-11T02:21:49;39.63;;;21.67;;
3066;SDS011;1544;48.834;9.194;2024-01-11T02:24:30;46.78;;;22.80;;
3066;SDS011;1544;48.834;9.194;2024-01-11T02:27:06;44.28;;;22.55;;
3066;SDS011;1544;48.834;9.194;2024-01-11T02:29:42;40.97;;;22.50;;
3066;SDS011;1544;48.834;9.194;2024-01-11T02:32:18;38.00;;;21.95;;
3066;SDS011;1544;48.834;9.194;2024-01-11T02:34:54;47.50;;;21.88;;
3066;SDS011;1544;48.834;9.194;2024-01-11T02:37:31;41.60;;;21.95;;
3066;SDS011;1544;48.834;9.194;2024-01-11T02:40:07;40.65;;;22.20;;
3066;SDS011;1544;48.834;9.194;2024-01-11T02:42:44;37.22;;;19.50;;
3066;SDS011;1544;48.834;9.194;2024-01-11T02:45:20;39.22;;;21.60;;
3066;SDS011;1544;48.834;9.194;2024-01-11T02:47:56;41.58;;;21.83;;
3066;SDS011;1544;48.834;9.194;2024-01-11T02:50:32;43.65;;;22.33;;
3066;SDS011;1544;48.834;9.194;2024-01-11T02:53:08;36.95;;;19.92;;
3066;SDS011;1544;48.834;9.194;2024-01-11T02:55:44;38.92;;;19.90;;
3066;SDS011;1544;48.834;9.194;2024-01-11T02:58:20;40.72;;;21.15;;
3066;SDS011;1544;48.834;9.194;2024-01-11T03:00:56;41.03;;;21.35;;
3066;SDS011;1544;48.834;9.194;2024-01-11T03:03:32;42.92;;;22.85;;
3066;SDS011;1544;48.834;9.194;2024-01-11T03:06:08;38.85;;;19.80;;
3066;SDS011;1544;48.834;9.194;2024-01-11T03:08:44;43.58;;;22.75;;
3066;SDS011;1544;48.834;9.194;2024-01-11T03:11:20;39.35;;;20.52;;
3066;SDS011;1544;48.834;9.194;2024-01-11T03:13:56;40.25;;;21.55;;
3066;SDS011;1544;48.834;9.194;2024-01-11T03:16:33;43.30;;;22.55;;
3066;SDS011;1544;48.834;9.194;2024-01-11T03:19:09;39.45;;;21.52;;
3066;SDS011;1544;48.834;9.194;2024-01-11T03:21:45;38.63;;;22.00;;
3066;SDS011;1544;48.834;9.194;2024-01-11T03:24:21;39.17;;;21.20;;
3066;SDS011;1544;48.834;9.194;2024-01-11T03:26:57;42.80;;;20.95;;
3066;SDS011;1544;48.834;9.194;2024-01-11T03:29:33;38.50;;;20.65;;
3066;SDS011;1544;48.834;9.194;2024-01-11T03:32:09;41.15;;;22.40;;
3066;SDS011;1544;48.834;9.194;2024-01-11T03:34:49;42.88;;;21.67;;
3066;SDS011;1544;48.834;9.194;2024-01-11T03:37:25;36.47;;;20.13;;
3066;SDS011;1544;48.834;9.194;2024-01-11T03:40:02;37.17;;;21.10;;
3066;SDS011;1544;48.834;9.194;2024-01-11T03:42:39;37.42;;;20.35;;
3066;SDS011;1544;48.834;9.194;2024-01-11T03:45:17;37.45;;;19.90;;
3066;SDS011;1544;48.834;9.194;2024-01-11T03:47:54;33.70;;;19.98;;
3066;SDS011;1544;48.834;9.194;2024-01-11T03:50:30;40.40;;;21.63;;
3066;SDS011;1544;48.834;9.194;2024-01-11T03:53:07;37.00;;;19.58;;
3066;SDS011;1544;48.834;9.194;2024-01-11T03:55:43;36.35;;;20.25;;
3066;SDS011;1544;48.834;9.194;2024-01-11T03:58:19;38.45;;;19.73;;
3066;SDS011;1544;48.834;9.194;2024-01-11T04:00:55;37.47;;;21.05;;
3066;SDS011;1544;48.834;9.194;2024-01-11T04:03:31;40.78;;;21.13;;
3066;SDS011;1544;48.834;9.194;2024-01-11T04:06:07;37.40;;;19.60;;
3066;SDS011;1544;48.834;9.194;2024-01-11T04:08:43;43.08;;;22.33;;
3066;SDS011;1544;48.834;9.194;2024-01-11T04:11:21;43.50;;;20.42;;
3066;SDS011;1544;48.834;9.194;2024-01-11T04:13:57;41.08;;;21.00;;
3066;SDS011;1544;48.834;9.194;2024-01-11T04:16:33;37.17;;;20.80;;
3066;SDS011;1544;48.834;9.194;2024-01-11T04:19:15;40.80;;;20.13;;
3066;SDS011;1544;48.834;9.194;2024-01-11T04:21:53;45.65;;;21.55;;
3066;SDS011;1544;48.834;9.194;2024-01-11T04:24:29;43.53;;;21.63;;
3066;SDS011;1544;48.834;9.194;2024-01-11T04:27:05;42.42;;;20.48;;
3066;SDS011;1544;48.834;9.194;2024-01-11T04:29:41;41.40;;;20.42;;
3066;SDS011;1544;48.834;9.194;2024-01-11T04:32:17;37.38;;;20.17;;
3066;SDS011;1544;48.834;9.194;2024-01-11T04:34:53;42.30;;;21.10;;
3066;SDS011;1544;48.834;9.194;2024-01-11T04:37:29;37.17;;;20.33;;
3066;SDS011;1544;48.834;9.194;2024-01-11T04:40:06;39.40;;;22.20;;
3066;SDS011;1544;48.834;9.194;2024-01-11T04:42:43;41.30;;;22.05;;
3066;SDS011;1544;48.834;9.194;2024-01-11T04:45:19;38.90;;;21.23;;
3066;SDS011;1544;48.834;9.194;2024-01-11T04:47:55;41.97;;;21.13;;
3066;SDS011;1544;48.834;9.194;2024-01-11T04:50:31;32.40;;;18.85;;
3066;SDS011;1544;48.834;9.194;2024-01-11T04:53:07;37.28;;;19.55;;
3066;SDS011;1544;48.834;9.194;2024-01-11T04:55:44;47.03;;;22.35;;
3066;SDS011;1544;48.834;9.194;2024-01-11T04:58:20;43.65;;;21.80;;
3066;SDS011;1544;48.834;9.194;2024-01-11T05:00:55;43.67;;;19.20;;
3066;SDS011;1544;48.834;9.194;2024-01-11T05:03:32;40.35;;;20.33;;
3066;SDS011;1544;48.834;9.194;2024-01-11T05:06:08;39.15;;;20.90;;
3066;SDS011;1544;48.834;9.194;2024-01-11T05:08:53;40.53;;;20.90;;
3066;SDS011;1544;48.834;9.194;2024-01-11T05:11:29;31.30;;;18.55;;
3066;SDS011;1544;48.834;9.194;2024-01-11T05:14:05;39.08;;;21.15;;
3066;SDS011;1544;48.834;9.194;2024-01-11T05:16:41;44.35;;;21.15;;
3066;SDS011;1544;48.834;9.194;2024-01-11T05:19:18;41.55;;;19.85;;
3066;SDS011;1544;48.834;9.194;2024-01-11T05:21:55;36.85;;;20.77;;
3066;SDS011;1544;48.834;9.194;2024-01-11T05:24:31;41.50;;;21.45;;
3066;SDS011;1544;48.834;9.194;2024-01-11T05:27:09;43.75;;;22.98;;
3066;SDS011;1544;48.834;9.194;2024-01-11T05:29:45;42.63;;;22.10;;
3066;SDS011;1544;48.834;9.194;2024-01-11T05:32:21;39.83;;;21.42;;
3066;SDS011;1544;48.834;9.194;2024-01-11T05:34:57;42.78;;;22.55;;
3066;SDS011;1544;48.834;9.194;2024-01-11T05:37:34;42.38;;;21.92;;
3066;SDS011;1544;48.834;9.194;2024-01-11T05:40:10;40.55;;;21.52;;
3066;SDS011;1544;48.834;9.194;2024-01-11T05:42:46;41.97;;;20.42;;
3066;SDS011;1544;48.834;9.194;2024-01-11T05:45:23;44.30;;;22.90;;
3066;SDS011;1544;48.834;9.194;2024-01-11T05:48:10;43.85;;;21.67;;
3066;SDS011;1544;48.834;9.194;2024-01-11T05:50:46;45.40;;;21.73;;
3066;SDS011;1544;48.834;9.194;2024-01-11T05:53:22;47.80;;;23.65;;
3066;SDS011;1544;48.834;9.194;2024-01-11T05:56:00;44.45;;;23.20;;
3066;SDS011;1544;48.834;9.194;2024-01-11T05:58:36;41.25;;;22.92;;
3066;SDS011;1544;48.834;9.194;2024-01-11T06:01:13;44.78;;;21.98;;
3066;SDS011;1544;48.834;9.194;2024-01-11T06:03:50;38.90;;;22.40;;
3066;SDS011;1544;48.834;9.194;2024-01-11T06:06:26;41.22;;;21.85;;
3066;SDS011;1544;48.834;9.194;2024-01-11T06:09:02;45.65;;;22.92;;
3066;SDS011;1544;48.834;9.194;2024-01-11T06:11:40;44.88;;;23.08;;
3066;SDS011;1544;48.834;9.194;2024-01-11T06:14:16;42.05;;;21.95;;
3066;SDS011;1544;48.834;9.194;2024-01-11T06:16:52;37.97;;;21.83;;
3066;SDS011;1544;48.834;9.194;2024-01-11T06:19:28;43.92;;;23.38;;
3066;SDS011;1544;48.834;9.194;2024-01-11T06:22:04;46.47;;;24.27;;
3066;SDS011;1544;48.834;9.194;2024-01-11T06:24:43;41.47;;;21.77;;
3066;SDS011;1544;48.834;9.194;2024-01-11T06:27:19;50.67;;;23.60;;
3066;SDS011;1544;48.834;9.194;2024-01-11T06:29:55;51.35;;;23.83;;
3066;SDS011;1544;48.834;9.194;2024-01-11T06:32:31;43.00;;;22.00;;
3066;SDS011;1544;48.834;9.194;2024-01-11T06:35:08;44.45;;;22.25;;
3066;SDS011;1544;48.834;9.194;2024-01-11T06:37:45;42.67;;;21.67;;
3066;SDS011;1544;48.834;9.194;2024-01-11T06:40:21;47.92;;;21.88;;
3066;SDS011;1544;48.834;9.194;2024-01-11T06:42:56;52.00;;;21.80;;
3066;SDS011;1544;48.834;9.194;2024-01-11T06:45:33;38.28;;;21.20;;
3066;SDS011;1544;48.834;9.194;2024-01-11T06:48:09;41.08;;;22.05;;
3066;SDS011;1544;48.834;9.194;2024-01-11T06:50:45;45.15;;;21.25;;
3066;SDS011;1544;48.834;9.194;2024-01-11T06:53:21;45.50;;;21.75;;
3066;SDS011;1544;48.834;9.194;2024-01-11T06:55:57;40.55;;;21.85;;
3066;SDS011;1544;48.834;9.194;2024-01-11T06:58:33;44.78;;;23.42;;
3066;SDS011;1544;48.834;9.194;2024-01-11T07:01:09;45.97;;;22.35;;
3066;SDS011;1544;48.834;9.194;2024-01-11T07:03:46;48.42;;;23.10;;
3066;SDS011;1544;48.834;9.194;2024-01-11T07:06:21;40.80;;;22.23;;
3066;SDS011;1544;48.834;9.194;2024-01-11T07:08:58;38.53;;;23.13;;
3066;SDS011;1544;48.834;9.194;2024-01-11T07:11:34;43.45;;;21.80;;
3066;SDS011;1544;48.834;9.194;2024-01-11T07:14:10;43.70;;;21.00;;
3066;SDS011;1544;48.834;9.194;2024-01-11T07:16:46;39.97;;;22.40;;
3066;SDS011;1544;48.834;9.194;2024-01-11T07:19:22;39.90;;;21.83;;
3066;SDS011;1544;48.834;9.194;2024-01-11T07:21:58;43.65;;;21.40;;
3066;SDS011;1544;48.834;9.194;2024-01-11T07:24:34;46.33;;;21.50;;
3066;SDS011;1544;48.834;9.194;2024-01-11T07:27:13;40.80;;;22.00;;
3066;SDS011;1544;48.834;9.194;2024-01-11T07:29:50;42.70;;;23.00;;
3066;SDS011;1544;48.834;9.194;2024-01-11T07:32:26;47.60;;;24.25;;
3066;SDS011;1544;48.834;9.194;2024-01-11T07:35:02;45.67;;;23.33;;
3066;SDS011;1544;48.834;9.194;2024-01-11T07:37:42;50.85;;;22.92;;
3066;SDS011;1544;48.834;9.194;2024-01-11T07:40:18;46.15;;;23.15;;
3066;SDS011;1544;48.834;9.194;2024-01-11T07:42:54;41.00;;;22.45;;
3066;SDS011;1544;48.834;9.194;2024-01-11T07:45:30;43.60;;;23.25;;
3066;SDS011;1544;48.834;9.194;2024-01-11T07:48:06;46.80;;;23.55;;
3066;SDS011;1544;48.834;9.194;2024-01-11T07:50:42;47.53;;;21.40;;
3066;SDS011;1544;48.834;9.194;2024-01-11T07:53:19;46.17;;;23.40;;
3066;SDS011;1544;48.834;9.194;2024-01-11T07:55:56;49.40;;;25.40;;
3066;SDS011;1544;48.834;9.194;2024-01-11T07:58:32;43.85;;;24.20;;
3066;SDS011;1544;48.834;9.194;2024-01-11T08:01:11;48.72;;;25.73;;
3066;SDS011;1544;48.834;9.194;2024-01-11T08:03:48;49.08;;;26.15;;
3066;SDS011;1544;48.834;9.194;2024-01-11T08:06:27;43.10;;;23.25;;
3066;SDS011;1544;48.834;9.194;2024-01-11T08:09:03;47.88;;;25.45;;
3066;SDS011;1544;48.834;9.194;2024-01-11T08:11:40;45.08;;;25.95;;
3066;SDS011;1544;48.834;9.194;2024-01-11T08:14:23;50.70;;;25.73;;
3066;SDS011;1544;48.834;9.194;2024-01-11T08:17:00;45.05;;;24.05;;
3066;SDS011;1544;48.834;9.194;2024-01-11T08:19:37;52.65;;;26.67;;
3066;SDS011;1544;48.834;9.194;2024-01-11T08:22:14;49.67;;;26.00;;
3066;SDS011;1544;48.834;9.194;2024-01-11T08:24:51;51.50;;;25.92;;
3066;SDS011;1544;48.834;9.194;2024-01-11T08:27:27;48.92;;;24.77;;
3066;SDS011;1544;48.834;9.194;2024-01-11T08:30:04;49.03;;;24.65;;
3066;SDS011;1544;48.834;9.194;2024-01-11T08:32:41;46.15;;;25.45;;
3066;SDS011;1544;48.834;9.194;2024-01-11T08:35:18;52.63;;;26.92;;
3066;SDS011;1544;48.834;9.194;2024-01-11T08:37:54;42.85;;;24.10;;
3066;SDS011;1544;48.834;9.194;2024-01-11T08:40:30;46.90;;;25.17;;
3066;SDS011;1544;48.834;9.194;2024-01-11T08:43:06;49.28;;;24.98;;
3066;SDS011;1544;48.834;9.194;2024-01-11T08:45:42;49.15;;;25.90;;
3066;SDS011;1544;48.834;9.194;2024-01-11T08:48:22;51.78;;;25.95;;
3066;SDS011;1544;48.834;9.194;2024-01-11T08:50:58;48.47;;;24.73;;
3066;SDS011;1544;48.834;9.194;2024-01-11T08:53:34;52.35;;;24.50;;
3066;SDS011;1544;48.834;9.194;2024-01-11T08:56:10;47.72;;;26.23;;
3066;SDS011;1544;48.834;9.194;2024-01-11T08:58:47;47.20;;;25.23;;
3066;SDS011;1544;48.834;9.194;2024-01-11T09:01:24;49.05;;;26.15;;
3066;SDS011;1544;48.834;9.194;2024-01-11T09:04:00;44.03;;;25.83;;
3066;SDS011;1544;48.834;9.194;2024-01-11T09:06:40;46.05;;;24.30;;
3066;SDS011;1544;48.834;9.194;2024-01-11T09:09:23;44.97;;;25.13;;
3066;SDS011;1544;48.834;9.194;2024-01-11T09:12:02;46.55;;;24.52;;
3066;SDS011;1544;48.834;9.194;2024-01-11T09:14:39;43.83;;;25.20;;
3066;SDS011;1544;48.834;9.194;2024-01-11T09:17:15;47.60;;;25.25;;
3066;SDS011;1544;48.834;9.194;2024-01-11T09:19:51;42.15;;;24.92;;
3066;SDS011;1544;48.834;9.194;2024-01-11T09:22:27;48.53;;;24.00;;
3066;SDS011;1544;48.834;9.194;2024-01-11T09:25:03;45.70;;;23.48;;
3066;SDS011;1544;48.834;9.194;2024-01-11T09:27:40;49.10;;;26.90;;
3066;SDS011;1544;48.834;9.194;2024-01-11T09:30:16;45.67;;;26.38;;
3066;SDS011;1544;48.834;9.194;2024-01-11T09:32:52;48.47;;;27.25;;
3066;SDS011;1544;48.834;9.194;2024-01-11T09:35:29;43.08;;;25.77;;
3066;SDS011;1544;48.834;9.194;2024-01-11T09:38:04;42.83;;;26.30;;
3066;SDS011;1544;48.834;9.194;2024-01-11T09:40:41;47.35;;;26.00;;
3066;SDS011;1544;48.834;9.194;2024-01-11T09:43:17;44.13;;;25.35;;
3066;SDS011;1544;48.834;9.194;2024-01-11T09:45:53;51.22;;;26.30;;
3066;SDS011;1544;48.834;9.194;2024-01-11T09:48:40;48.30;;;26.85;;
3066;SDS011;1544;48.834;9.194;2024-01-11T09:51:19;49.42;;;25.73;;
3066;SDS011;1544;48.834;9.194;2024-01-11T09:53:55;54.85;;;27.02;;
3066;SDS011;1544;48.834;9.194;2024-01-11T09:56:33;43.40;;;25.40;;
3066;SDS011;1544;48.834;9.194;2024-01-11T09:59:10;46.97;;;24.83;;
3066;SDS011;1544;48.834;9.194;2024-01-11T10:01:49;50.40;;;27.15;;
3066;SDS011;1544;48.834;9.194;2024-01-11T10:04:26;43.35;;;25.42;;
3066;SDS011;1544;48.834;9.194;2024-01-11T10:07:03;46.85;;;26.88;;
3066;SDS011;1544;48.834;9.194;2024-01-11T10:09:41;57.33;;;25.98;;
3066;SDS011;1544;48.834;9.194;2024-01-11T10:12:17;40.08;;;23.45;;
3066;SDS011;1544;48.834;9.194;2024-01-11T10:14:56;44.38;;;23.30;;
3066;SDS011;1544;48.834;9.194;2024-01-11T10:17:43;48.88;;;26.65;;
3066;SDS011;1544;48.834;9.194;2024-01-11T10:20:21;44.00;;;23.58;;
3066;SDS011;1544;48.834;9.194;2024-01-11T10:22:59;40.78;;;24.13;;
3066;SDS011;1544;48.834;9.194;2024-01-11T10:25:38;42.78;;;25.50;;
3066;SDS011;1544;48.834;9.194;2024-01-11T10:28:14;52.10;;;30.40;;
3066;SDS011;1544;48.834;9.194;2024-01-11T10:30:50;49.55;;;27.38;;
3066;SDS011;1544;48.834;9.194;2024-01-11T10:33:28;44.30;;;26.05;;
3066;SDS011;1544;48.834;9.194;2024-01-11T10:36:04;46.25;;;27.25;;
3066;SDS011;1544;48.834;9.194;2024-01-11T10:38:42;42.30;;;26.02;;
3066;SDS011;1544;48.834;9.194;2024-01-11T10:41:20;49.03;;;27.80;;
3066;SDS011;1544;48.834;9.194;2024-01-11T10:43:56;54.65;;;29.38;;
3066;SDS011;1544;48.834;9.194;2024-01-11T10:46:34;51.25;;;28.40;;
3066;SDS011;1544;48.834;9.194;2024-01-11T10:49:11;47.28;;;25.88;;
3066;SDS011;1544;48.834;9.194;2024-01-11T10:51:59;46.88;;;27.30;;
3066;SDS011;1544;48.834;9.194;2024-01-11T10:54:37;44.33;;;26.00;;
3066;SDS011;1544;48.834;9.194;2024-01-11T10:57:17;45.38;;;26.77;;
3066;SDS011;1544;48.834;9.194;2024-01-11T10:59:53;44.67;;;27.47;;
3066;SDS011;1544;48.834;9.194;2024-01-11T11:02:30;41.03;;;25.97;;
3066;SDS011;1544;48.834;9.194;2024-01-11T11:05:10;46.73;;;26.60;;
3066;SDS011;1544;48.834;9.194;2024-01-11T11:07:49;44.27;;;28.03;;
3066;SDS011;1544;48.834;9.194;2024-01-11T11:10:25;45.23;;;27.17;;
3066;SDS011;1544;48.834;9.194;2024-01-11T11:13:03;40.07;;;25.60;;
3066;SDS011;1544;48.834;9.194;2024-01-11T11:15:47;50.17;;;29.07;;
3066;SDS011;1544;48.834;9.194;2024-01-11T11:18:27;39.67;;;25.73;;
3066;SDS011;1544;48.834;9.194;2024-01-11T11:21:06;44.83;;;26.30;;
3066;SDS011;1544;48.834;9.194;2024-01-11T11:23:46;42.50;;;26.37;;
3066;SDS011;1544;48.834;9.194;2024-01-11T11:26:22;46.40;;;26.70;;
3066;SDS011;1544;48.834;9.194;2024-01-11T11:29:03;42.83;;;26.87;;
3066;SDS011;1544;48.834;9.194;2024-01-11T11:31:46;43.30;;;28.60;;
3066;SDS011;1544;48.834;9.194;2024-01-11T11:34:39;48.23;;;29.83;;
3066;SDS011;1544;48.834;9.194;2024-01-11T11:37:22;43.83;;;28.30;;
3066;SDS011;1544;48.834;9.194;2024-01-11T11:39:59;43.87;;;26.97;;
3066;SDS011;1544;48.834;9.194;2024-01-11T11:42:36;47.50;;;28.13;;
3066;SDS011;1544;48.834;9.194;2024-01-11T11:45:24;38.73;;;26.27;;
3066;SDS011;1544;48.834;9.194;2024-01-11T11:48:04;42.30;;;27.53;;
3066;SDS011;1544;48.834;9.194;2024-01-11T11:53:52;42.77;;;26.73;;
3066;SDS011;1544;48.834;9.194;2024-01-11T11:56:29;38.57;;;24.90;;
3066;SDS011;1544;48.834;9.194;2024-01-11T11:59:06;40.60;;;25.30;;
3066;SDS011;1544;48.834;9.194;2024-01-11T12:01:43;47.27;;;27.10;;
3066;SDS011;1544;48.834;9.194;2024-01-11T12:04:20;39.30;;;25.93;;
3066;SDS011;1544;48.834;9.194;2024-01-11T12:06:57;43.30;;;28.37;;
3066;SDS011;1544;48.834;9.194;2024-01-11T12:09:33;47.00;;;27.70;;
3066;SDS011;1544;48.834;9.194;2024-01-11T12:12:09;42.00;;;26.73;;
3066;SDS011;1544;48.834;9.194;2024-01-11T12:14:50;37.90;;;25.90;;
3066;SDS011;1544;48.834;9.194;2024-01-11T12:17:27;44.90;;;28.10;;
3066;SDS011;1544;48.834;9.194;2024-01-11T12:20:04;41.30;;;27.40;;
3066;SDS011;1544;48.834;9.194;2024-01-11T12:22:41;45.00;;;26.23;;
3066;SDS011;1544;48.834;9.194;2024-01-11T12:25:17;42.20;;;26.50;;
3066;SDS011;1544;48.834;9.194;2024-01-11T12:27:53;45.30;;;27.73;;
3066;SDS011;1544;48.834;9.194;2024-01-11T12:30:31;45.43;;;26.97;;
3066;SDS011;1544;48.834;9.194;2024-01-11T12:33:06;41.23;;;26.90;;
3066;SDS011;1544;48.834;9.194;2024-01-11T12:35:44;42.27;;;26.70;;
3066;SDS011;1544;48.834;9.194;2024-01-11T12:38:21;37.93;;;25.83;;
3066;SDS011;1544;48.834;9.194;2024-01-11T12:40:57;42.20;;;26.33;;
3066;SDS011;1544;48.834;9.194;2024-01-11T12:43:33;41.73;;;27.10;;
3066;SDS011;1544;48.834;9.194;2024-01-11T12:46:10;42.70;;;27.23;;
3066;SDS011;1544;48.834;9.194;2024-01-11T12:48:46;44.10;;;27.17;;
3066;SDS011;1544;48.834;9.194;2024-01-11T12:51:23;38.17;;;26.07;;
3066;SDS011;1544;48.834;9.194;2024-01-11T12:53:59;42.60;;;26.37;;
3066;SDS011;1544;48.834;9.194;2024-01-11T12:56:35;43.50;;;27.57;;
3066;SDS011;1544;48.834;9.194;2024-01-11T12:59:18;35.20;;;25.20;;
3066;SDS011;1544;48.834;9.194;2024-01-11T13:01:55;39.20;;;26.23;;
3066;SDS011;1544;48.834;9.194;2024-01-11T13:04:33;41.20;;;25.10;;
3066;SDS011;1544;48.834;9.194;2024-01-11T13:07:10;37.90;;;26.13;;
3066;SDS011;1544;48.834;9.194;2024-01-11T13:09:47;44.87;;;26.90;;
3066;SDS011;1544;48.834;9.194;2024-01-11T13:12:23;35.07;;;25.67;;
3066;SDS011;1544;48.834;9.194;2024-01-11T13:15:03;38.80;;;26.00;;
3066;SDS011;1544;48.834;9.194;2024-01-11T13:17:40;41.60;;;27.07;;
3066;SDS011;1544;48.834;9.194;2024-01-11T13:20:16;41.80;;;26.60;;
3066;SDS011;1544;48.834;9.194;2024-01-11T13:23:13;38.80;;;26.60;;
3066;SDS011;1544;48.834;9.194;2024-01-11T13:25:52;43.37;;;28.57;;
3066;SDS011;1544;48.834;9.194;2024-01-11T13:28:28;40.33;;;27.27;;
3066;SDS011;1544;48.834;9.194;2024-01-11T13:31:04;39.57;;;27.03;;
3066;SDS011;1544;48.834;9.194;2024-01-11T13:33:40;41.00;;;26.23;;
3066;SDS011;1544;48.834;9.194;2024-01-11T13:36:16;42.33;;;26.90;;
3066;SDS011;1544;48.834;9.194;2024-01-11T13:38:52;42.63;;;28.30;;
3066;SDS011;1544;48.834;9.194;2024-01-11T13:41:30;41.93;;;28.37;;
3066;SDS011;1544;48.834;9.194;2024-01-11T13:44:06;42.73;;;26.20;;
3066;SDS011;1544;48.834;9.194;2024-01-11T13:46:46;40.70;;;27.87;;
3066;SDS011;1544;48.834;9.194;2024-01-11T13:49:22;43.67;;;29.17;;
3066;SDS011;1544;48.834;9.194;2024-01-11T13:52:01;42.50;;;27.93;;
3066;SDS011;1544;48.834;9.194;2024-01-11T13:54:37;40.20;;;27.70;;
3066;SDS011;1544;48.834;9.194;2024-01-11T13:57:13;42.03;;;27.60;;
3066;SDS011;1544;48.834;9.194;2024-01-11T13:59:49;38.77;;;27.73;;
3066;SDS011;1544;48.834;9.194;2024-01-11T14:02:26;40.23;;;26.83;;
3066;SDS011;1544;48.834;9.194;2024-01-11T14:05:02;40.33;;;26.43;;
3066;SDS011;1544;48.834;9.194;2024-01-11T14:07:42;35.43;;;25.47;;
3066;SDS011;1544;48.834;9.194;2024-01-11T14:10:24;40.03;;;26.70;;
3066;SDS011;1544;48.834;9.194;2024-01-11T14:13:04;42.70;;;28.23;;
3066;SDS011;1544;48.834;9.194;2024-01-11T14:15:40;44.00;;;29.00;;
3066;SDS011;1544;48.834;9.194;2024-01-11T14:18:17;38.47;;;27.87;;
3066;SDS011;1544;48.834;9.194;2024-01-11T14:20:56;40.87;;;26.97;;
3066;SDS011;1544;48.834;9.194;2024-01-11T14:23:32;36.80;;;27.53;;
3066;SDS011;1544;48.834;9.194;2024-01-11T14:26:09;40.40;;;27.07;;
3066;SDS011;1544;48.834;9.194;2024-01-11T14:28:48;38.70;;;26.63;;
3066;SDS011;1544;48.834;9.194;2024-01-11T14:31:35;43.47;;;28.70;;
3066;SDS011;1544;48.834;9.194;2024-01-11T14:34:12;42.10;;;26.33;;
3066;SDS011;1544;48.834;9.194;2024-01-11T14:36:49;41.67;;;26.57;;
3066;SDS011;1544;48.834;9.194;2024-01-11T14:39:25;41.07;;;26.73;;
3066;SDS011;1544;48.834;9.194;2024-01-11T14:42:01;40.10;;;27.10;;
3066;SDS011;1544;48.834;9.194;2024-01-11T14:44:38;41.73;;;27.57;;
3066;SDS011;1544;48.834;9.194;2024-01-11T14:47:15;39.00;;;28.00;;
3066;SDS011;1544;48.834;9.194;2024-01-11T14:49:55;37.40;;;26.67;;
3066;SDS011;1544;48.834;9.194;2024-01-11T14:52:34;40.50;;;26.77;;
3066;SDS011;1544;48.834;9.194;2024-01-11T14:55:10;39.87;;;26.87;;
3066;SDS011;1544;48.834;9.194;2024-01-11T14:57:47;44.40;;;28.63;;
3066;SDS011;1544;48.834;9.194;2024-01-11T15:00:29;47.90;;;28.87;;
3066;SDS011;1544;48.834;9.194;2024-01-11T15:03:05;40.63;;;26.63;;
3066;SDS011;1544;48.834;9.194;2024-01-11T15:05:42;48.27;;;29.07;;
3066;SDS011;1544;48.834;9.194;2024-01-11T15:08:18;45.20;;;28.20;;
3066;SDS011;1544;48.834;9.194;2024-01-11T15:10:55;45.43;;;28.30;;
3066;SDS011;1544;48.834;9.194;2024-01-11T15:13:34;42.43;;;26.40;;
3066;SDS011;1544;48.834;9.194;2024-01-11T15:16:10;42.00;;;29.23;;
3066;SDS011;1544;48.834;9.194;2024-01-11T15:18:50;47.00;;;28.00;;
3066;SDS011;1544;48.834;9.194;2024-01-11T15:21:40;43.40;;;27.20;;
3066;SDS011;1544;48.834;9.194;2024-01-11T15:24:37;42.73;;;28.30;;
3066;SDS011;1544;48.834;9.194;2024-01-11T15:27:27;47.30;;;28.00;;
3066;SDS011;1544;48.834;9.194;2024-01-11T15:30:16;42.80;;;28.30;;
3066;SDS011;1544;48.834;9.194;2024-01-11T15:33:08;45.13;;;27.33;;
3066;SDS011;1544;48.834;9.194;2024-01-11T15:35:52;45.73;;;29.03;;
3066;SDS011;1544;48.834;9.194;2024-01-11T15:38:33;49.90;;;28.10;;
3066;SDS011;1544;48.834;9.194;2024-01-11T15:41:26;44.67;;;28.63;;
3066;SDS011;1544;48.834;9.194;2024-01-11T15:44:16;47.90;;;28.93;;
3066;SDS011;1544;48.834;9.194;2024-01-11T15:46:54;46.53;;;30.07;;
3066;SDS011;1544;48.834;9.194;2024-01-11T15:49:31;46.53;;;29.70;;
3066;SDS011;1544;48.834;9.194;2024-01-11T15:52:07;48.80;;;29.30;;